createdAt,value
2023-03-06T00:00:57.104Z,100.00
2023-03-06T00:03:27.893Z,100.00
2023-03-06T00:05:58.041Z,100.00
2023-03-06T00:08:27.414Z,100.00
2023-03-06T00:10:56.349Z,100.00
2023-03-06T00:13:24.682Z,100.00
2023-03-06T00:15:52.790Z,100.00
2023-03-06T00:18:20.850Z,100.00
2023-03-06T00:20:49.028Z,100.00
2023-03-06T00:23:16.696Z,100.00
2023-03-06T00:25:45.930Z,100.00
2023-03-06T00:28:15.779Z,100.00
2023-03-06T00:30:46.038Z,100.00
2023-03-06T00:33:14.285Z,100.00
2023-03-06T00:35:42.496Z,100.00
2023-03-06T00:38:12.690Z,100.00
2023-03-06T00:40:40.736Z,100.00
2023-03-06T00:43:08.896Z,100.00
2023-03-06T00:45:37.322Z,100.00
2023-03-06T00:48:05.404Z,100.00
2023-03-06T00:50:35.287Z,100.00
2023-03-06T00:53:02.913Z,100.00
2023-03-06T00:55:31.277Z,100.00
2023-03-06T00:57:59.278Z,100.00
2023-03-06T01:00:29.167Z,100.00
2023-03-06T01:02:57.800Z,100.00
2023-03-06T01:05:25.619Z,100.00
2023-03-06T01:07:53.587Z,100.00
2023-03-06T01:10:21.353Z,100.00
2023-03-06T01:12:49.453Z,100.00
2023-03-06T01:15:16.964Z,100.00
2023-03-06T01:17:45.263Z,100.00
2023-03-06T01:20:16.179Z,100.00
2023-03-06T01:22:44.466Z,100.00
2023-03-06T01:25:12.566Z,100.00
2023-03-06T01:27:40.509Z,100.00
2023-03-06T01:30:12.465Z,100.00
2023-03-06T01:32:40.500Z,100.00
2023-03-06T01:35:09.498Z,100.00
2023-03-06T01:37:38.050Z,100.00
2023-03-06T01:40:08.202Z,100.00
2023-03-06T01:42:35.753Z,100.00
2023-03-06T01:45:27.018Z,100.00
2023-03-06T01:47:55.467Z,100.00
2023-03-06T01:50:23.824Z,100.00
2023-03-06T01:52:55.774Z,100.00
2023-03-06T01:55:27.866Z,100.00
2023-03-06T01:57:59.285Z,100.00
2023-03-06T02:00:29.972Z,100.00
2023-03-06T02:03:17.135Z,100.00
2023-03-06T02:05:45.924Z,100.00
2023-03-06T02:08:18.031Z,100.00
2023-03-06T02:11:17.355Z,100.00
2023-03-06T02:13:46.769Z,100.00
2023-03-06T02:16:16.209Z,100.00
2023-03-06T02:18:47.316Z,100.00
2023-03-06T02:21:22.588Z,100.00
2023-03-06T02:24:09.263Z,100.00
2023-03-06T02:26:38.641Z,100.00
2023-03-06T02:29:09.568Z,100.00
2023-03-06T02:31:37.627Z,100.00
2023-03-06T02:34:28.104Z,100.00
2023-03-06T02:37:00.461Z,100.00
2023-03-06T02:39:32.342Z,100.00
2023-03-06T02:42:00.113Z,100.00
2023-03-06T02:44:31.739Z,100.00
2023-03-06T02:46:59.864Z,100.00
2023-03-06T02:49:27.900Z,100.00
2023-03-06T02:51:56.250Z,100.00
2023-03-06T02:54:23.792Z,100.00
2023-03-06T02:56:51.733Z,100.00
2023-03-06T02:59:19.319Z,100.00
2023-03-06T03:01:48.116Z,100.00
2023-03-06T03:04:16.224Z,100.00
2023-03-06T03:06:43.827Z,100.00
2023-03-06T03:09:12.836Z,100.00
2023-03-06T03:11:40.626Z,100.00
2023-03-06T03:14:08.165Z,100.00
2023-03-06T03:16:37.539Z,100.00
2023-03-06T03:19:07.135Z,100.00
2023-03-06T03:21:35.703Z,100.00
2023-03-06T03:24:03.719Z,100.00
2023-03-06T03:26:31.707Z,100.00
2023-03-06T03:29:13.391Z,100.00
2023-03-06T03:31:41.713Z,100.00
2023-03-06T03:34:09.398Z,100.00
2023-03-06T03:36:40.422Z,100.00
2023-03-06T03:39:11.093Z,100.00
2023-03-06T03:41:39.272Z,100.00
2023-03-06T03:44:09.280Z,100.00
2023-03-06T03:46:38.103Z,100.00
2023-03-06T03:49:10.194Z,100.00
2023-03-06T03:51:38.959Z,100.00
2023-03-06T03:54:07.247Z,100.00
2023-03-06T03:56:41.854Z,100.00
2023-03-06T03:59:24.105Z,100.00
2023-03-06T04:02:30.003Z,100.00
2023-03-06T04:05:14.892Z,100.00
2023-03-06T04:07:44.294Z,100.00
2023-03-06T04:10:13.591Z,100.00
2023-03-06T04:12:42.494Z,100.00
2023-03-06T04:15:12.023Z,100.00
2023-03-06T04:17:40.466Z,100.00
2023-03-06T04:20:14.498Z,100.00
2023-03-06T04:22:42.428Z,100.00
2023-03-06T04:25:12.323Z,100.00
2023-03-06T04:27:40.349Z,100.00
2023-03-06T04:30:08.499Z,100.00
2023-03-06T04:32:36.960Z,100.00
2023-03-06T04:35:06.553Z,100.00
2023-03-06T04:37:40.384Z,100.00
2023-03-06T04:40:11.991Z,100.00
2023-03-06T04:42:40.289Z,100.00
2023-03-06T04:45:09.155Z,100.00
2023-03-06T04:47:37.196Z,100.00
2023-03-06T04:50:05.921Z,100.00
2023-03-06T04:52:33.981Z,100.00
2023-03-06T04:55:04.260Z,100.00
2023-03-06T04:57:32.209Z,100.00
2023-03-06T05:00:00.226Z,100.00
2023-03-06T05:02:28.248Z,100.00
2023-03-06T05:04:56.380Z,100.00
2023-03-06T05:07:23.857Z,100.00
2023-03-06T05:09:51.575Z,100.00
2023-03-06T05:12:19.073Z,100.00
2023-03-06T05:14:48.196Z,100.00
2023-03-06T05:17:16.726Z,100.00
2023-03-06T05:19:44.358Z,100.00
2023-03-06T05:22:12.120Z,100.00
2023-03-06T05:24:39.659Z,100.00
2023-03-06T05:27:07.198Z,100.00
2023-03-06T05:29:35.859Z,100.00
2023-03-06T05:32:03.764Z,100.00
2023-03-06T05:34:32.066Z,100.00
2023-03-06T05:37:01.730Z,100.00
2023-03-06T05:39:29.705Z,100.00
2023-03-06T05:41:58.298Z,100.00
2023-03-06T05:44:31.365Z,100.00
2023-03-06T05:46:59.102Z,100.00
2023-03-06T05:49:27.314Z,100.00
2023-03-06T05:51:55.208Z,100.00
2023-03-06T05:54:24.453Z,100.00
2023-03-06T05:56:51.885Z,100.00
2023-03-06T05:59:20.482Z,100.00
2023-03-06T06:01:48.432Z,100.00
2023-03-06T06:04:15.893Z,100.00
2023-03-06T06:06:43.388Z,100.00
2023-03-06T06:09:13.775Z,100.00
2023-03-06T06:11:45.336Z,100.00
2023-03-06T06:14:12.900Z,100.00
2023-03-06T06:16:40.965Z,100.00
2023-03-06T06:19:08.763Z,100.00
2023-03-06T06:21:36.388Z,100.00
2023-03-06T06:24:04.143Z,100.00
2023-03-06T06:26:31.733Z,100.00
2023-03-06T06:29:00.364Z,100.00
2023-03-06T06:31:28.588Z,100.00
2023-03-06T06:33:57.233Z,100.00
2023-03-06T06:36:25.269Z,100.00
2023-03-06T06:38:53.486Z,100.00
2023-03-06T06:44:14.511Z,100.00
2023-03-06T06:49:33.235Z,100.00
2023-03-06T06:52:01.481Z,100.00
2023-03-06T06:54:29.387Z,100.00
2023-03-06T06:56:57.264Z,100.00
2023-03-06T06:59:24.931Z,100.00
2023-03-06T07:01:53.428Z,100.00
2023-03-06T07:04:21.704Z,100.00
2023-03-06T07:06:49.269Z,100.00
2023-03-06T07:09:17.220Z,100.00
2023-03-06T07:11:45.209Z,100.00
2023-03-06T07:14:13.261Z,100.00
2023-03-06T07:16:41.492Z,100.00
2023-03-06T07:19:09.888Z,100.00
2023-03-06T07:21:38.041Z,100.00
2023-03-06T07:24:06.290Z,100.00
2023-03-06T07:26:34.966Z,100.00
2023-03-06T07:29:04.208Z,100.00
2023-03-06T07:31:32.393Z,100.00
2023-03-06T07:34:00.525Z,100.00
2023-03-06T07:36:29.026Z,100.00
2023-03-06T07:38:57.026Z,100.00
2023-03-06T07:41:24.523Z,100.00
2023-03-06T07:43:52.420Z,100.00
2023-03-06T07:46:20.431Z,100.00
2023-03-06T07:48:47.988Z,100.00
2023-03-06T07:51:19.025Z,100.00
2023-03-06T07:53:47.882Z,100.00
2023-03-06T07:56:16.630Z,100.00
2023-03-06T07:58:46.586Z,100.00
2023-03-06T08:01:20.494Z,100.00
2023-03-06T08:03:50.046Z,100.00
2023-03-06T08:06:27.269Z,100.00
2023-03-06T08:08:56.926Z,99.58
2023-03-06T08:11:30.142Z,99.02
2023-03-06T08:13:58.585Z,96.59
2023-03-06T08:16:28.966Z,96.47
2023-03-06T08:18:57.703Z,96.40
2023-03-06T08:21:28.318Z,95.28
2023-03-06T08:23:56.844Z,97.58
2023-03-06T08:26:30.785Z,96.17
2023-03-06T08:29:00.950Z,94.91
2023-03-06T08:31:36.850Z,97.70
2023-03-06T08:34:12.982Z,95.74
2023-03-06T08:36:41.345Z,94.38
2023-03-06T08:39:09.678Z,93.22
2023-03-06T08:41:38.197Z,94.08
2023-03-06T08:44:05.939Z,93.57
2023-03-06T08:46:34.888Z,90.49
2023-03-06T08:49:03.363Z,91.19
2023-03-06T08:51:31.504Z,91.01
2023-03-06T08:54:00.213Z,86.88
2023-03-06T08:56:31.225Z,85.74
2023-03-06T08:59:01.473Z,83.92
2023-03-06T09:01:36.826Z,82.01
2023-03-06T09:04:07.542Z,82.81
2023-03-06T09:06:38.273Z,78.52
2023-03-06T09:09:07.488Z,75.19
2023-03-06T09:11:36.360Z,71.85
2023-03-06T09:14:05.654Z,71.87
2023-03-06T09:16:33.857Z,73.50
2023-03-06T09:19:01.468Z,75.02
2023-03-06T09:21:29.983Z,72.20
2023-03-06T09:23:57.981Z,69.71
2023-03-06T09:26:39.524Z,68.63
2023-03-06T09:29:12.846Z,68.24
2023-03-06T09:31:40.415Z,67.89
2023-03-06T09:34:08.629Z,70.37
2023-03-06T09:36:53.329Z,68.51
2023-03-06T09:39:24.025Z,68.27
2023-03-06T09:41:52.867Z,68.94
2023-03-06T09:44:27.736Z,68.70
2023-03-06T09:47:14.493Z,65.02
2023-03-06T09:49:48.399Z,62.25
2023-03-06T09:52:24.901Z,59.79
2023-03-06T09:54:54.337Z,55.99
2023-03-06T09:57:27.134Z,54.83
2023-03-06T09:59:58.405Z,54.09
2023-03-06T10:02:37.684Z,54.72
2023-03-06T10:05:12.485Z,56.81
2023-03-06T10:08:03.722Z,54.13
2023-03-06T10:10:44.673Z,53.67
2023-03-06T10:13:25.742Z,51.80
2023-03-06T10:16:00.027Z,49.15
2023-03-06T10:18:27.932Z,46.04
2023-03-06T10:21:18.773Z,45.71
2023-03-06T10:24:28.438Z,45.68
2023-03-06T10:27:31.658Z,46.61
2023-03-06T10:30:32.787Z,47.85
2023-03-06T10:33:39.504Z,47.83
2023-03-06T10:36:13.097Z,47.49
2023-03-06T10:38:41.301Z,50.07
2023-03-06T10:41:13.136Z,50.42
2023-03-06T10:43:44.231Z,50.61
2023-03-06T10:46:26.530Z,51.92
2023-03-06T10:48:59.878Z,54.08
2023-03-06T10:51:29.987Z,53.69
2023-03-06T10:54:01.706Z,51.27
2023-03-06T10:56:33.009Z,54.09
2023-03-06T10:59:17.340Z,53.30
2023-03-06T11:01:48.336Z,48.67
2023-03-06T11:04:30.302Z,48.36
2023-03-06T11:07:15.989Z,48.35
2023-03-06T11:09:56.859Z,47.90
2023-03-06T11:12:32.380Z,47.66
2023-03-06T11:15:17.513Z,49.70
2023-03-06T11:17:55.579Z,49.53
2023-03-06T11:20:51.149Z,50.26
2023-03-06T11:23:22.987Z,49.72
2023-03-06T11:26:02.335Z,49.21
2023-03-06T11:28:33.111Z,47.90
2023-03-06T11:31:17.668Z,48.63
2023-03-06T11:33:53.180Z,46.12
2023-03-06T11:36:28.458Z,45.30
2023-03-06T11:38:56.403Z,44.42
2023-03-06T11:41:54.489Z,44.41
2023-03-06T11:44:43.431Z,46.34
2023-03-06T11:47:22.943Z,44.78
2023-03-06T11:50:04.732Z,44.12
2023-03-06T11:52:48.322Z,43.78
2023-03-06T11:55:23.686Z,46.22
2023-03-06T11:58:29.760Z,45.42
2023-03-06T12:01:00.711Z,43.30
2023-03-06T12:03:39.026Z,41.95
2023-03-06T12:06:12.782Z,41.96
2023-03-06T12:08:47.661Z,41.61
2023-03-06T12:11:24.789Z,41.55
2023-03-06T12:14:20.239Z,41.24
2023-03-06T12:17:10.891Z,41.52
2023-03-06T12:20:19.852Z,45.42
2023-03-06T12:23:15.102Z,48.16
2023-03-06T12:25:50.774Z,45.23
2023-03-06T12:28:50.401Z,45.01
2023-03-06T12:31:31.615Z,41.91
2023-03-06T12:34:15.250Z,38.21
2023-03-06T12:36:48.904Z,39.76
2023-03-06T12:39:22.721Z,39.61
2023-03-06T12:42:06.766Z,40.08
2023-03-06T12:45:01.297Z,40.14
2023-03-06T12:47:31.829Z,42.03
2023-03-06T12:50:03.950Z,39.32
2023-03-06T12:52:34.611Z,36.94
2023-03-06T12:55:08.021Z,39.41
2023-03-06T12:57:35.725Z,37.61
2023-03-06T13:00:04.380Z,37.26
2023-03-06T13:02:47.046Z,35.70
2023-03-06T13:06:03.527Z,36.11
2023-03-06T13:08:40.089Z,35.29
2023-03-06T13:11:23.680Z,35.05
2023-03-06T13:13:51.303Z,33.82
2023-03-06T13:16:18.876Z,33.47
2023-03-06T13:19:14.033Z,32.41
2023-03-06T13:21:42.118Z,32.87
2023-03-06T13:24:18.237Z,35.00
2023-03-06T13:26:45.648Z,34.06
2023-03-06T13:29:38.471Z,31.61
2023-03-06T13:32:17.620Z,32.13
2023-03-06T13:34:50.210Z,31.53
2023-03-06T13:37:23.162Z,32.42
2023-03-06T13:40:00.455Z,32.50
2023-03-06T13:42:30.499Z,30.83
2023-03-06T13:45:07.690Z,31.13
2023-03-06T13:48:25.042Z,31.73
2023-03-06T13:50:52.635Z,31.24
2023-03-06T13:53:35.390Z,30.86
2023-03-06T13:56:16.713Z,34.50
2023-03-06T13:58:57.798Z,34.62
2023-03-06T14:01:59.354Z,33.73
2023-03-06T14:04:49.863Z,36.65
2023-03-06T14:07:24.655Z,34.48
2023-03-06T14:10:02.850Z,34.24
2023-03-06T14:12:35.225Z,33.00
2023-03-06T14:15:22.983Z,31.88
2023-03-06T14:18:00.627Z,31.47
2023-03-06T14:20:49.503Z,30.54
2023-03-06T14:23:26.424Z,32.04
2023-03-06T14:26:15.233Z,36.02
2023-03-06T14:28:46.289Z,35.45
2023-03-06T14:31:18.378Z,32.29
2023-03-06T14:34:07.295Z,31.90
2023-03-06T14:36:43.124Z,31.95
2023-03-06T14:39:15.659Z,29.18
2023-03-06T14:41:43.675Z,28.33
2023-03-06T14:44:23.696Z,33.01
2023-03-06T14:46:55.145Z,35.34
2023-03-06T14:49:26.209Z,36.47
2023-03-06T14:52:00.623Z,38.76
2023-03-06T14:54:32.662Z,39.56
2023-03-06T14:57:13.672Z,41.90
2023-03-06T14:59:51.282Z,42.17
2023-03-06T15:02:24.386Z,43.26
2023-03-06T15:04:58.988Z,42.79
2023-03-06T15:07:30.783Z,41.93
2023-03-06T15:10:00.704Z,43.08
2023-03-06T15:12:31.430Z,44.64
2023-03-06T15:15:00.670Z,43.68
2023-03-06T15:17:38.978Z,44.71
2023-03-06T15:20:28.306Z,45.54
2023-03-06T15:22:56.000Z,44.83
2023-03-06T15:25:30.228Z,44.37
2023-03-06T15:28:01.549Z,43.95
2023-03-06T15:30:29.807Z,44.92
2023-03-06T15:33:19.932Z,43.10
2023-03-06T15:36:18.748Z,42.83
2023-03-06T15:38:47.895Z,44.46
2023-03-06T15:41:36.563Z,45.01
2023-03-06T15:44:15.247Z,44.90
2023-03-06T15:46:43.643Z,45.74
2023-03-06T15:49:18.243Z,45.88
2023-03-06T15:51:46.240Z,45.20
2023-03-06T15:54:14.401Z,43.75
2023-03-06T15:56:44.934Z,43.74
2023-03-06T15:59:33.250Z,44.17
2023-03-06T16:02:11.062Z,44.04
2023-03-06T16:04:39.193Z,45.04
2023-03-06T16:07:07.312Z,45.56
2023-03-06T16:09:34.986Z,45.24
2023-03-06T16:12:04.695Z,45.45
2023-03-06T16:14:32.366Z,45.99
2023-03-06T16:17:00.477Z,46.50
2023-03-06T16:19:28.740Z,47.80
2023-03-06T16:21:56.838Z,47.85
2023-03-06T16:24:26.292Z,48.75
2023-03-06T16:26:55.095Z,48.34
2023-03-06T16:29:25.503Z,48.28
2023-03-06T16:31:56.145Z,48.92
2023-03-06T16:34:25.326Z,49.25
2023-03-06T16:36:53.418Z,49.39
2023-03-06T16:39:23.576Z,49.28
2023-03-06T16:41:51.754Z,50.23
2023-03-06T16:44:20.867Z,50.77
2023-03-06T16:46:50.178Z,51.79
2023-03-06T16:49:22.139Z,51.68
2023-03-06T16:51:50.965Z,52.79
2023-03-06T16:54:19.458Z,53.81
2023-03-06T16:56:47.125Z,53.95
2023-03-06T16:59:15.151Z,54.71
2023-03-06T17:01:43.411Z,56.15
2023-03-06T17:04:11.753Z,56.19
2023-03-06T17:06:41.914Z,57.24
2023-03-06T17:09:14.423Z,56.63
2023-03-06T17:11:44.899Z,58.38
2023-03-06T17:14:13.031Z,58.57
2023-03-06T17:16:42.168Z,58.61
2023-03-06T17:19:14.443Z,59.99
2023-03-06T17:21:43.727Z,60.94
2023-03-06T17:24:12.493Z,62.75
2023-03-06T17:26:40.336Z,63.26
2023-03-06T17:29:09.767Z,64.14
2023-03-06T17:31:37.299Z,64.01
2023-03-06T17:34:05.364Z,63.45
2023-03-06T17:36:33.947Z,65.55
2023-03-06T17:39:03.116Z,65.79
2023-03-06T17:41:32.970Z,66.89
2023-03-06T17:44:01.940Z,67.88
2023-03-06T17:46:33.398Z,67.99
2023-03-06T17:49:01.521Z,68.64
2023-03-06T17:51:29.669Z,68.62
2023-03-06T17:53:58.437Z,68.92
2023-03-06T17:56:27.442Z,68.54
2023-03-06T17:58:57.389Z,69.10
2023-03-06T18:01:30.302Z,68.96
2023-03-06T18:03:59.177Z,70.78
2023-03-06T18:06:30.154Z,72.04
2023-03-06T18:08:58.843Z,73.55
2023-03-06T18:11:27.803Z,74.27
2023-03-06T18:13:56.035Z,74.29
2023-03-06T18:16:26.274Z,73.99
2023-03-06T18:18:56.731Z,76.64
2023-03-06T18:21:25.023Z,77.54
2023-03-06T18:23:52.747Z,75.94
2023-03-06T18:26:28.651Z,76.10
2023-03-06T18:29:01.537Z,76.45
2023-03-06T18:31:39.161Z,76.12
2023-03-06T18:34:10.377Z,77.25
2023-03-06T18:36:39.076Z,76.82
2023-03-06T18:39:09.671Z,76.93
2023-03-06T18:41:38.361Z,77.62
2023-03-06T18:44:06.715Z,77.94
2023-03-06T18:46:37.487Z,76.81
2023-03-06T18:49:06.289Z,76.29
2023-03-06T18:51:35.006Z,76.62
2023-03-06T18:54:04.455Z,76.84
2023-03-06T18:56:32.800Z,76.80
2023-03-06T18:59:03.768Z,79.00
2023-03-06T19:01:32.451Z,79.87
2023-03-06T19:04:02.225Z,78.01
2023-03-06T19:06:30.668Z,78.12
2023-03-06T19:08:58.945Z,78.50
2023-03-06T19:11:27.865Z,77.54
2023-03-06T19:13:55.822Z,78.50
2023-03-06T19:16:27.191Z,78.85
2023-03-06T19:18:55.801Z,80.26
2023-03-06T19:21:26.326Z,80.09
2023-03-06T19:23:55.062Z,80.65
2023-03-06T19:26:23.882Z,80.90
2023-03-06T19:28:52.567Z,80.90
2023-03-06T19:31:25.204Z,80.46
2023-03-06T19:33:53.729Z,81.24
2023-03-06T19:36:26.973Z,80.27
2023-03-06T19:38:59.545Z,81.21
2023-03-06T19:41:28.482Z,81.15
2023-03-06T19:43:59.410Z,81.59
2023-03-06T19:46:27.380Z,79.14
2023-03-06T19:49:01.285Z,78.10
2023-03-06T19:51:29.613Z,78.56
2023-03-06T19:53:57.740Z,80.29
2023-03-06T19:56:29.076Z,79.51
2023-03-06T19:58:57.726Z,78.47
2023-03-06T20:01:27.579Z,79.13
2023-03-06T20:04:00.166Z,79.76
2023-03-06T20:06:33.478Z,80.22
2023-03-06T20:09:04.196Z,81.90
2023-03-06T20:11:32.576Z,82.51
2023-03-06T20:14:02.873Z,83.17
2023-03-06T20:16:31.570Z,84.05
2023-03-06T20:19:01.290Z,83.99
2023-03-06T20:21:32.282Z,83.25
2023-03-06T20:23:59.940Z,83.94
2023-03-06T20:26:29.502Z,84.34
2023-03-06T20:28:58.459Z,85.26
2023-03-06T20:31:29.861Z,85.02
2023-03-06T20:33:59.079Z,85.23
2023-03-06T20:36:30.855Z,86.18
2023-03-06T20:39:03.682Z,85.48
2023-03-06T20:41:31.951Z,86.25
2023-03-06T20:44:02.662Z,85.57
2023-03-06T20:46:33.891Z,85.21
2023-03-06T20:49:01.987Z,85.33
2023-03-06T20:51:32.704Z,85.88
2023-03-06T20:54:02.155Z,85.93
2023-03-06T20:56:32.723Z,85.61
2023-03-06T20:59:00.893Z,86.36
2023-03-06T21:01:28.986Z,85.06
2023-03-06T21:03:57.486Z,84.86
2023-03-06T21:06:26.547Z,84.67
2023-03-06T21:08:56.121Z,85.59
2023-03-06T21:11:24.680Z,84.61
2023-03-06T21:13:53.663Z,86.13
2023-03-06T21:16:24.879Z,86.84
2023-03-06T21:18:55.624Z,86.72
2023-03-06T21:21:26.459Z,86.79
2023-03-06T21:23:54.951Z,87.88
2023-03-06T21:26:24.802Z,87.88
2023-03-06T21:28:53.041Z,87.77
2023-03-06T21:31:22.603Z,86.27
2023-03-06T21:33:51.782Z,85.24
2023-03-06T21:36:21.727Z,85.79
2023-03-06T21:38:52.247Z,87.16
2023-03-06T21:41:27.468Z,87.84
2023-03-06T21:43:56.876Z,88.59
2023-03-06T21:46:25.371Z,89.36
2023-03-06T21:48:54.747Z,90.14
2023-03-06T21:51:24.148Z,90.14
2023-03-06T21:53:53.213Z,89.43
2023-03-06T21:56:25.057Z,90.90
2023-03-06T21:58:53.548Z,90.83
2023-03-06T22:01:24.354Z,91.21
2023-03-06T22:03:53.291Z,91.95
2023-03-06T22:06:25.110Z,91.16
2023-03-06T22:08:56.429Z,90.01
2023-03-06T22:11:26.074Z,92.61
2023-03-06T22:13:54.200Z,93.00
2023-03-06T22:16:22.048Z,94.00
2023-03-06T22:18:51.289Z,93.75
2023-03-06T22:21:20.922Z,94.73
2023-03-06T22:23:54.569Z,95.38
2023-03-06T22:26:23.491Z,96.50
2023-03-06T22:28:51.390Z,98.29
2023-03-06T22:31:24.921Z,97.56
2023-03-06T22:33:58.159Z,98.20
2023-03-06T22:36:27.760Z,98.69
2023-03-06T22:38:58.641Z,98.15
2023-03-06T22:41:27.393Z,98.88
2023-03-06T22:44:03.030Z,99.95
2023-03-06T22:46:32.449Z,99.53
2023-03-06T22:49:00.998Z,99.97
2023-03-06T22:51:29.773Z,100.00
2023-03-06T22:53:58.212Z,100.00
2023-03-06T22:56:25.909Z,100.00
2023-03-06T22:58:53.776Z,100.00
2023-03-06T23:01:25.314Z,100.00
2023-03-06T23:03:59.323Z,100.00
2023-03-06T23:06:33.101Z,100.00
2023-03-06T23:09:04.232Z,100.00
2023-03-06T23:11:32.685Z,100.00
2023-03-06T23:14:19.810Z,100.00
2023-03-06T23:17:05.645Z,100.00
2023-03-06T23:19:52.120Z,100.00
2023-03-06T23:22:38.054Z,100.00
2023-03-06T23:25:24.295Z,100.00
2023-03-06T23:27:52.658Z,100.00
2023-03-06T23:30:20.674Z,100.00
2023-03-06T23:32:48.244Z,100.00
2023-03-06T23:35:15.812Z,100.00
2023-03-06T23:37:43.957Z,100.00
2023-03-06T23:40:13.698Z,100.00
2023-03-06T23:42:41.722Z,100.00
2023-03-06T23:45:09.852Z,100.00
2023-03-06T23:47:37.423Z,100.00
2023-03-06T23:50:05.833Z,100.00
2023-03-06T23:52:33.748Z,100.00
2023-03-06T23:55:01.647Z,100.00
2023-03-06T23:57:30.447Z,100.00
2023-03-06T23:59:58.071Z,100.00
